Time;durP1;ratioP1;P1;durP2;ratioP2;P2;SDS_P1;SDS_P2;PMS_P1;PMS_P2;Temp;Humidity;BMP_temperature;BMP_pressure;BME280_temperature;BME280_humidity;BME280_pressure;Samples;Min_cycle;Max_cycle;Signal;HPM_P1;HPM_P2
2023/04/30 00:01:43;;;;;;;8.40;2.50;;;9.00;99.90;;;;;;5099470;28;20040;-70
2023/04/30 00:04:08;;;;;;;7.70;1.95;;;9.10;99.90;;;;;;5099369;28;20040;-70
2023/04/30 00:06:34;;;;;;;8.43;2.50;;;8.90;99.90;;;;;;5099442;28;20067;-70
2023/04/30 00:09:00;;;;;;;8.60;2.50;;;8.90;99.90;;;;;;5098972;28;20036;-70
2023/04/30 00:11:25;;;;;;;8.68;2.72;;;9.00;99.90;;;;;;5099026;28;20038;-70
2023/04/30 00:13:51;;;;;;;7.70;2.60;;;8.90;99.90;;;;;;5114903;28;20083;-70
2023/04/30 00:16:17;;;;;;;7.75;2.55;;;8.80;99.90;;;;;;5099263;28;20302;-70
2023/04/30 00:18:43;;;;;;;9.18;2.45;;;8.90;99.90;;;;;;5097309;28;20100;-70
2023/04/30 00:21:09;;;;;;;6.57;2.25;;;8.90;99.90;;;;;;5114197;28;20089;-70
2023/04/30 00:23:34;;;;;;;7.30;2.33;;;8.80;99.90;;;;;;5098792;28;20040;-70
2023/04/30 00:26:00;;;;;;;6.28;2.65;;;8.80;99.90;;;;;;5099076;28;20036;-70
2023/04/30 00:28:26;;;;;;;10.25;2.38;;;8.80;99.90;;;;;;5098830;28;20115;-70
2023/04/30 00:30:52;;;;;;;7.70;2.40;;;8.80;99.90;;;;;;5098956;28;20042;-70
2023/04/30 00:33:18;;;;;;;14.40;2.78;;;8.90;99.90;;;;;;5098719;28;20036;-70
2023/04/30 00:35:44;;;;;;;8.07;2.13;;;8.90;99.90;;;;;;5098841;28;20089;-70
2023/04/30 00:38:09;;;;;;;7.85;2.70;;;8.80;99.90;;;;;;5098810;28;20472;-70
2023/04/30 00:40:37;;;;;;;7.80;2.25;;;8.80;99.90;;;;;;5098737;28;20048;-70
2023/04/30 00:43:02;;;;;;;4.88;2.30;;;8.70;99.90;;;;;;5098765;28;20110;-70
2023/04/30 00:45:28;;;;;;;8.25;2.40;;;8.60;99.90;;;;;;5098698;28;20446;-70
2023/04/30 00:47:54;;;;;;;7.22;2.42;;;8.60;99.90;;;;;;5098521;28;20325;-70
2023/04/30 00:50:20;;;;;;;4.13;2.13;;;8.60;99.90;;;;;;5098272;28;20383;-70
2023/04/30 00:52:45;;;;;;;7.07;2.38;;;8.70;99.90;;;;;;5097884;28;20104;-70
2023/04/30 00:55:11;;;;;;;12.30;2.60;;;8.70;99.90;;;;;;5098443;28;20036;-70
2023/04/30 00:57:39;;;;;;;8.10;2.40;;;8.50;99.90;;;;;;5098413;28;20105;-70
2023/04/30 01:00:08;;;;;;;8.93;3.03;;;8.50;99.90;;;;;;5098394;28;20035;-70
2023/04/30 01:02:35;;;;;;;6.25;2.45;;;8.40;99.90;;;;;;5098382;28;20091;-70
2023/04/30 01:05:02;;;;;;;6.30;2.33;;;8.40;99.90;;;;;;5098280;28;20120;-70
2023/04/30 01:07:29;;;;;;;5.85;2.70;;;8.30;99.90;;;;;;5097883;28;20482;-70
2023/04/30 01:09:55;;;;;;;10.02;2.47;;;8.30;99.90;;;;;;5097929;28;20456;-70
2023/04/30 01:12:31;;;;;;;6.82;2.65;;;8.30;99.90;;;;;;5098144;28;20032;-70
2023/04/30 01:15:25;;;;;;;6.90;2.65;;;8.30;99.90;;;;;;5098171;28;20125;-70
2023/04/30 01:18:28;;;;;;;7.93;2.72;;;8.30;99.90;;;;;;5098125;28;20036;-71
2023/04/30 01:21:03;;;;;;;7.82;2.60;;;8.20;99.90;;;;;;5097685;28;20036;-70
2023/04/30 01:23:48;;;;;;;9.03;2.90;;;8.20;99.90;;;;;;5098041;28;20044;-70
2023/04/30 01:26:47;;;;;;;8.60;4.03;;;8.10;99.90;;;;;;5097571;28;20052;-70
2023/04/30 01:29:17;;;;;;;6.32;3.17;;;8.20;99.90;;;;;;5097819;28;20100;-70
2023/04/30 01:31:43;;;;;;;8.68;3.42;;;8.30;99.90;;;;;;5097169;28;20397;-70
2023/04/30 01:34:09;;;;;;;10.27;3.38;;;8.30;99.90;;;;;;5097296;28;20044;-70
2023/04/30 01:36:47;;;;;;;5.10;3.10;;;8.30;99.90;;;;;;5097719;28;20044;-70
2023/04/30 01:39:34;;;;;;;7.75;3.50;;;8.20;99.90;;;;;;5097361;28;20498;-70
2023/04/30 01:42:20;;;;;;;10.63;3.50;;;8.20;99.90;;;;;;5097530;28;20368;-70
2023/04/30 01:45:05;;;;;;;6.30;3.40;;;8.20;99.90;;;;;;5096568;28;20436;-70
2023/04/30 01:47:52;;;;;;;11.27;4.22;;;8.30;99.90;;;;;;5096428;28;20044;-70
2023/04/30 01:50:42;;;;;;;6.72;2.92;;;8.30;99.90;;;;;;5097434;28;20036;-70
2023/04/30 01:53:19;;;;;;;5.22;2.92;;;8.30;99.90;;;;;;5097069;28;20036;-70
2023/04/30 01:55:58;;;;;;;7.75;3.22;;;8.20;99.90;;;;;;5097429;28;20043;-71
2023/04/30 01:58:26;;;;;;;8.57;3.20;;;8.20;99.90;;;;;;5097383;28;20085;-70
2023/04/30 02:00:52;;;;;;;9.15;3.20;;;8.10;99.90;;;;;;5097014;28;20050;-70
2023/04/30 02:03:18;;;;;;;9.13;2.88;;;8.10;99.90;;;;;;5097534;28;20334;-70
2023/04/30 02:05:44;;;;;;;10.45;4.60;;;8.10;99.90;;;;;;5095945;28;20043;-70
2023/04/30 02:08:09;;;;;;;6.00;2.95;;;8.20;99.90;;;;;;5096784;28;20043;-70
2023/04/30 02:10:35;;;;;;;9.02;3.25;;;8.20;99.90;;;;;;5097142;28;20038;-70
2023/04/30 02:13:01;;;;;;;6.28;3.72;;;8.20;99.90;;;;;;5097150;28;20036;-70
2023/04/30 02:15:26;;;;;;;8.07;3.30;;;8.10;99.90;;;;;;5096686;28;20036;-71
2023/04/30 02:17:52;;;;;;;8.30;4.20;;;8.20;99.90;;;;;;5097114;28;20044;-70
2023/04/30 02:20:18;;;;;;;5.10;2.92;;;8.20;99.90;;;;;;5097081;28;20040;-70
2023/04/30 02:22:43;;;;;;;5.18;2.80;;;8.20;99.90;;;;;;5096633;28;20040;-70
2023/04/30 02:25:11;;;;;;;6.60;3.13;;;8.20;99.90;;;;;;5096973;28;20032;-70
2023/04/30 02:27:37;;;;;;;9.32;3.08;;;8.30;99.90;;;;;;5096548;28;20053;-70
2023/04/30 02:30:03;;;;;;;7.03;3.20;;;8.40;99.90;;;;;;5096730;28;20036;-70
2023/04/30 02:32:29;;;;;;;8.23;3.05;;;8.50;99.90;;;;;;5096577;28;20329;-70
2023/04/30 02:34:55;;;;;;;6.88;2.72;;;8.50;99.90;;;;;;5096440;28;20048;-70
2023/04/30 02:37:21;;;;;;;7.15;3.00;;;8.50;99.90;;;;;;5096527;28;20425;-70
2023/04/30 02:39:47;;;;;;;5.10;2.78;;;8.60;99.90;;;;;;5096849;28;20024;-70
2023/04/30 02:42:13;;;;;;;6.72;3.08;;;8.50;99.90;;;;;;5097405;28;20064;-70
2023/04/30 02:44:39;;;;;;;6.38;2.70;;;8.50;99.90;;;;;;5101070;28;20071;-70
2023/04/30 02:47:04;;;;;;;7.05;3.00;;;8.50;99.90;;;;;;5100972;28;20330;-70
2023/04/30 02:49:30;;;;;;;7.65;3.50;;;8.50;99.90;;;;;;5100813;28;20040;-70
2023/04/30 02:51:56;;;;;;;4.85;2.78;;;8.50;99.90;;;;;;5100185;28;20040;-70
2023/04/30 02:54:21;;;;;;;7.03;2.75;;;8.50;99.90;;;;;;5082647;28;20040;-70
2023/04/30 02:56:47;;;;;;;7.07;2.85;;;8.40;99.90;;;;;;5100761;28;20039;-70
2023/04/30 02:59:13;;;;;;;7.25;3.10;;;8.40;99.90;;;;;;5100692;28;20123;-70
2023/04/30 03:01:39;;;;;;;5.28;2.95;;;8.50;99.90;;;;;;5100726;28;20036;-70
2023/04/30 03:04:05;;;;;;;8.48;2.85;;;8.50;99.90;;;;;;5100640;28;20036;-70
2023/04/30 03:06:31;;;;;;;8.43;3.40;;;8.60;99.90;;;;;;5100584;28;20039;-70
2023/04/30 03:08:57;;;;;;;10.00;3.22;;;8.60;99.90;;;;;;5100463;28;20141;-70
2023/04/30 03:11:23;;;;;;;6.80;2.80;;;8.50;99.90;;;;;;5100141;28;20437;-70
2023/04/30 03:13:52;;;;;;;8.88;3.10;;;8.50;99.90;;;;;;5100698;28;20118;-70
2023/04/30 03:16:19;;;;;;;6.93;3.25;;;8.50;99.90;;;;;;5100089;28;20443;-70
2023/04/30 03:18:45;;;;;;;11.82;3.42;;;8.60;99.90;;;;;;5100065;28;20425;-70
2023/04/30 03:21:11;;;;;;;7.40;3.10;;;8.60;99.90;;;;;;5099509;28;20445;-71
2023/04/30 03:23:37;;;;;;;9.80;3.28;;;8.50;99.90;;;;;;5100281;28;20082;-70
2023/04/30 03:26:02;;;;;;;7.63;3.00;;;8.40;99.90;;;;;;5099897;28;20054;-70
2023/04/30 03:28:28;;;;;;;6.68;3.40;;;8.40;99.90;;;;;;5099803;28;20036;-70
2023/04/30 03:30:54;;;;;;;8.60;3.22;;;8.30;99.90;;;;;;5100152;28;20036;-70
2023/04/30 03:33:20;;;;;;;11.00;3.10;;;8.40;99.90;;;;;;5099092;28;20321;-70
2023/04/30 03:35:45;;;;;;;11.02;4.03;;;8.30;99.90;;;;;;5099563;28;20052;-70
2023/04/30 03:38:11;;;;;;;10.48;3.20;;;8.30;99.90;;;;;;5099669;28;20074;-70
2023/04/30 03:40:37;;;;;;;7.43;3.58;;;8.40;99.90;;;;;;5099897;28;20073;-71
2023/04/30 03:43:02;;;;;;;8.00;3.72;;;8.40;99.90;;;;;;5099607;28;20055;-70
2023/04/30 03:45:28;;;;;;;8.55;3.83;;;8.40;99.90;;;;;;5099792;28;20032;-70
2023/04/30 03:47:54;;;;;;;9.05;3.25;;;8.40;99.90;;;;;;5099793;28;20044;-70
2023/04/30 03:50:20;;;;;;;7.90;3.65;;;8.40;99.90;;;;;;5099769;28;20048;-71
2023/04/30 03:52:45;;;;;;;8.38;3.40;;;8.40;99.90;;;;;;5099361;28;20152;-71
2023/04/30 03:55:11;;;;;;;13.30;3.17;;;8.40;99.90;;;;;;5099485;28;20032;-70
2023/04/30 03:57:39;;;;;;;5.57;3.17;;;8.40;99.90;;;;;;5099615;28;20047;-70
2023/04/30 04:00:09;;;;;;;7.85;3.10;;;8.50;99.90;;;;;;5099774;28;20118;-70
2023/04/30 04:02:35;;;;;;;5.90;3.10;;;8.40;99.90;;;;;;5099224;28;20086;-71
2023/04/30 04:05:02;;;;;;;7.93;3.53;;;8.40;99.90;;;;;;5081309;28;20043;-70
2023/04/30 04:07:28;;;;;;;9.32;3.33;;;8.30;99.90;;;;;;5099047;28;20072;-70
2023/04/30 04:09:53;;;;;;;8.77;2.95;;;8.40;99.90;;;;;;5099434;28;20128;-70
2023/04/30 04:12:19;;;;;;;6.80;3.03;;;8.30;99.90;;;;;;5098088;28;20040;-70
2023/04/30 04:14:44;;;;;;;7.38;3.38;;;8.30;99.90;;;;;;5099049;28;20071;-70
2023/04/30 04:17:10;;;;;;;6.40;3.75;;;8.20;99.90;;;;;;5099254;28;20040;-70
2023/04/30 04:19:36;;;;;;;10.57;3.47;;;8.30;99.90;;;;;;5099234;28;20040;-70
2023/04/30 04:22:03;;;;;;;7.13;3.05;;;8.30;99.90;;;;;;5098806;28;20036;-70
2023/04/30 04:24:29;;;;;;;8.93;3.15;;;8.40;99.90;;;;;;5098920;28;20119;-71
2023/04/30 04:26:54;;;;;;;9.70;3.17;;;8.30;99.90;;;;;;5099024;28;20071;-70
2023/04/30 04:29:20;;;;;;;6.93;3.25;;;8.30;99.90;;;;;;5098981;28;20074;-70
2023/04/30 04:31:48;;;;;;;6.85;3.65;;;8.30;99.90;;;;;;5098957;28;20044;-70
2023/04/30 04:34:13;;;;;;;8.48;3.30;;;8.30;99.90;;;;;;5098667;28;20056;-70
2023/04/30 04:36:40;;;;;;;9.15;3.30;;;8.20;99.90;;;;;;5098848;28;20039;-70
2023/04/30 04:39:06;;;;;;;8.90;3.53;;;8.30;99.90;;;;;;5098859;28;20341;-70
2023/04/30 04:41:32;;;;;;;8.73;3.88;;;8.30;99.90;;;;;;5098765;28;20047;-71
2023/04/30 04:43:59;;;;;;;7.07;3.45;;;8.30;99.90;;;;;;5098752;28;20075;-70
2023/04/30 04:46:24;;;;;;;9.13;3.70;;;8.20;99.90;;;;;;5098716;28;20040;-71
2023/04/30 04:48:51;;;;;;;10.88;4.10;;;8.30;99.90;;;;;;5098222;28;20048;-71
2023/04/30 04:51:16;;;;;;;8.35;4.00;;;8.40;99.90;;;;;;5097871;28;20040;-72
2023/04/30 04:53:42;;;;;;;7.95;3.20;;;8.40;99.90;;;;;;5098521;28;20035;-71
2023/04/30 04:56:08;;;;;;;8.50;3.55;;;8.40;99.90;;;;;;5098533;28;20044;-71
2023/04/30 04:58:33;;;;;;;9.15;3.45;;;8.40;99.90;;;;;;5098133;28;20055;-72
2023/04/30 05:01:00;;;;;;;6.93;3.17;;;8.30;99.90;;;;;;5098066;28;20090;-71
2023/04/30 05:03:27;;;;;;;5.85;3.45;;;8.30;99.90;;;;;;5098372;28;20044;-71
2023/04/30 05:05:53;;;;;;;10.32;3.55;;;8.40;99.90;;;;;;5096482;28;20040;-71
2023/04/30 05:08:18;;;;;;;6.30;3.60;;;8.40;99.90;;;;;;5098157;28;20101;-71
2023/04/30 05:10:44;;;;;;;8.48;3.75;;;8.50;99.90;;;;;;5097220;28;20040;-71
2023/04/30 05:13:10;;;;;;;9.35;4.03;;;8.50;99.90;;;;;;5098170;28;20031;-71
2023/04/30 05:15:36;;;;;;;9.30;4.03;;;8.60;99.90;;;;;;5098114;28;20170;-71
2023/04/30 05:18:02;;;;;;;9.43;4.00;;;8.70;99.90;;;;;;5098071;28;20040;-72
2023/04/30 05:20:28;;;;;;;11.07;4.20;;;8.70;99.90;;;;;;5098118;28;20040;-71
2023/04/30 05:22:54;;;;;;;10.18;4.70;;;8.80;99.90;;;;;;5097596;28;20413;-71
2023/04/30 05:25:19;;;;;;;11.90;5.65;;;8.90;99.90;;;;;;5097714;28;20044;-71
2023/04/30 05:27:45;;;;;;;10.52;4.60;;;9.20;99.90;;;;;;5097824;28;20047;-71
2023/04/30 05:30:11;;;;;;;12.45;5.07;;;9.40;99.90;;;;;;5097837;28;20157;-71
2023/04/30 05:32:37;;;;;;;11.95;5.00;;;9.50;99.90;;;;;;5097788;28;20055;-71
2023/04/30 05:35:02;;;;;;;13.63;5.38;;;9.60;99.90;;;;;;5097278;28;20433;-70
2023/04/30 05:37:28;;;;;;;14.50;6.70;;;9.70;99.90;;;;;;5097423;28;20054;-71
2023/04/30 05:39:54;;;;;;;16.50;8.13;;;9.80;99.90;;;;;;5097676;28;20111;-71
2023/04/30 05:42:20;;;;;;;20.25;7.03;;;9.80;99.90;;;;;;5096640;28;20414;-71
2023/04/30 05:44:47;;;;;;;16.17;6.80;;;9.80;99.90;;;;;;5097929;28;20365;-71
2023/04/30 05:47:12;;;;;;;15.88;6.80;;;9.90;99.90;;;;;;5097476;28;20032;-71
2023/04/30 05:49:38;;;;;;;12.70;6.60;;;10.00;99.90;;;;;;5097476;28;20122;-71
2023/04/30 05:52:04;;;;;;;15.18;6.82;;;10.10;99.90;;;;;;5097140;28;20039;-71
2023/04/30 05:54:30;;;;;;;11.05;5.57;;;10.10;99.90;;;;;;5097119;28;20089;-71
2023/04/30 05:56:56;;;;;;;13.57;6.07;;;10.20;99.90;;;;;;5097077;28;20051;-71
2023/04/30 05:59:22;;;;;;;13.55;5.85;;;10.40;99.90;;;;;;5097407;28;20054;-71
2023/04/30 06:01:47;;;;;;;11.02;5.60;;;10.40;99.90;;;;;;5097309;28;20055;-71
2023/04/30 06:04:13;;;;;;;25.45;11.98;;;10.20;99.90;;;;;;5096963;28;20345;-71
2023/04/30 06:06:39;;;;;;;26.27;12.60;;;10.00;99.90;;;;;;5095904;28;20083;-71
2023/04/30 06:09:04;;;;;;;43.40;27.00;;;10.10;99.90;;;;;;5097130;28;20093;-71
2023/04/30 06:11:30;;;;;;;38.50;22.60;;;10.10;99.90;;;;;;5097222;28;20032;-71
2023/04/30 06:13:56;;;;;;;36.15;20.75;;;10.20;99.90;;;;;;5097108;28;20035;-71
2023/04/30 06:16:22;;;;;;;35.80;19.02;;;10.40;99.90;;;;;;5096691;28;20425;-71
2023/04/30 06:18:48;;;;;;;25.42;14.55;;;10.50;99.90;;;;;;5096558;28;20044;-71
2023/04/30 06:21:14;;;;;;;25.48;10.88;;;10.60;99.90;;;;;;5078975;28;20047;-71
2023/04/30 06:23:39;;;;;;;14.25;6.05;;;10.70;99.90;;;;;;5095313;28;20055;-71
2023/04/30 06:26:05;;;;;;;13.18;4.05;;;10.90;99.90;;;;;;5095983;28;20031;-71
2023/04/30 06:28:31;;;;;;;13.43;4.10;;;10.90;99.90;;;;;;5096878;28;20042;-71
2023/04/30 06:30:57;;;;;;;14.40;4.10;;;11.00;99.90;;;;;;5096930;28;20111;-71
2023/04/30 06:33:23;;;;;;;12.18;4.07;;;11.30;99.90;;;;;;5096604;28;20505;-71
2023/04/30 06:35:54;;;;;;;10.38;2.83;;;11.30;99.90;;;;;;5096675;28;20083;-71
2023/04/30 06:38:20;;;;;;;8.63;3.03;;;11.20;99.90;;;;;;5096683;28;20490;-73
2023/04/30 06:40:46;;;;;;;12.77;3.00;;;11.10;99.90;;;;;;5096836;28;20044;-71
2023/04/30 06:43:11;;;;;;;13.68;3.40;;;11.20;99.90;;;;;;5096958;28;20343;-71
2023/04/30 06:45:38;;;;;;;13.02;3.60;;;11.20;99.90;;;;;;5096815;28;20038;-71
2023/04/30 06:48:04;;;;;;;14.50;4.28;;;11.10;99.90;;;;;;5096383;28;20441;-70
2023/04/30 06:50:30;;;;;;;16.80;3.85;;;11.10;99.90;;;;;;5095417;28;20119;-71
2023/04/30 06:52:55;;;;;;;15.88;3.72;;;11.10;99.90;;;;;;5096327;28;20040;-70
2023/04/30 06:55:21;;;;;;;9.10;3.42;;;11.10;99.90;;;;;;5096409;28;20131;-70
2023/04/30 06:57:47;;;;;;;11.15;3.40;;;11.10;99.90;;;;;;5096694;28;20044;-70
2023/04/30 07:00:16;;;;;;;14.18;4.15;;;11.20;99.90;;;;;;5096333;28;20036;-70
2023/04/30 07:02:42;;;;;;;16.13;4.25;;;11.20;99.90;;;;;;5096611;28;20047;-71
2023/04/30 07:05:08;;;;;;;10.70;3.60;;;11.20;99.90;;;;;;5096631;28;20040;-71
2023/04/30 07:07:34;;;;;;;11.60;3.90;;;11.20;99.90;;;;;;5096187;28;20384;-70
2023/04/30 07:09:59;;;;;;;16.77;3.78;;;11.20;99.90;;;;;;5095522;28;20044;-70
2023/04/30 07:12:25;;;;;;;11.25;3.47;;;11.20;99.90;;;;;;5096526;28;20079;-71
2023/04/30 07:14:51;;;;;;;13.63;3.95;;;11.10;99.90;;;;;;5096539;28;20395;-70
2023/04/30 07:17:17;;;;;;;12.27;4.25;;;11.30;99.90;;;;;;5096532;28;20028;-71
2023/04/30 07:19:43;;;;;;;9.68;3.20;;;11.30;99.90;;;;;;5096502;28;20384;-70
2023/04/30 07:22:08;;;;;;;15.45;3.80;;;11.40;99.90;;;;;;5096143;28;20047;-71
2023/04/30 07:24:34;;;;;;;15.00;3.45;;;11.60;99.90;;;;;;5096176;28;20055;-70
2023/04/30 07:27:02;;;;;;;13.77;3.47;;;11.70;99.90;;;;;;5096119;28;20123;-70
2023/04/30 07:29:28;;;;;;;13.02;3.78;;;11.80;99.90;;;;;;5098773;28;20044;-70
2023/04/30 07:31:55;;;;;;;12.07;3.70;;;11.80;99.90;;;;;;5100157;28;20057;-70
2023/04/30 07:34:21;;;;;;;7.55;3.45;;;11.80;99.90;;;;;;5098866;28;20345;-71
2023/04/30 07:36:47;;;;;;;11.02;3.20;;;11.90;99.90;;;;;;5100074;28;20044;-70
2023/04/30 07:39:13;;;;;;;16.55;3.28;;;11.90;99.90;;;;;;5099992;28;20040;-70
2023/04/30 07:41:39;;;;;;;14.38;3.45;;;12.00;99.90;;;;;;5099990;28;20028;-70
2023/04/30 07:44:05;;;;;;;13.07;3.53;;;12.10;99.90;;;;;;5099941;28;20486;-71
2023/04/30 07:46:30;;;;;;;15.00;3.70;;;11.90;99.90;;;;;;5081640;28;20040;-71
2023/04/30 07:48:56;;;;;;;14.73;3.70;;;12.00;99.90;;;;;;5098405;28;20080;-71
2023/04/30 07:51:22;;;;;;;14.40;3.50;;;12.10;99.90;;;;;;5098478;28;20066;-70
2023/04/30 07:53:47;;;;;;;14.43;3.75;;;11.90;99.90;;;;;;5098413;28;20032;-70
2023/04/30 07:56:13;;;;;;;15.88;3.63;;;11.80;99.90;;;;;;5099696;28;20043;-71
2023/04/30 07:58:39;;;;;;;14.38;3.30;;;11.90;99.90;;;;;;5098617;28;20044;-70
2023/04/30 08:01:05;;;;;;;12.52;3.10;;;12.00;99.90;;;;;;5099392;28;20480;-70
2023/04/30 08:03:30;;;;;;;14.45;3.00;;;12.10;99.90;;;;;;5099544;28;20097;-70
2023/04/30 08:05:56;;;;;;;11.85;3.10;;;12.10;99.90;;;;;;5099513;28;20321;-70
2023/04/30 08:08:22;;;;;;;11.48;3.42;;;12.00;99.90;;;;;;5099375;28;20046;-70
2023/04/30 08:10:47;;;;;;;16.23;3.75;;;12.00;99.90;;;;;;5099412;28;20074;-70
2023/04/30 08:13:13;;;;;;;10.88;2.88;;;12.10;99.90;;;;;;5099080;28;20048;-71
2023/04/30 08:15:39;;;;;;;13.07;3.13;;;12.10;99.90;;;;;;5099047;28;20033;-70
2023/04/30 08:18:04;;;;;;;16.35;4.18;;;12.30;99.90;;;;;;5098202;28;20486;-71
2023/04/30 08:20:32;;;;;;;15.57;4.20;;;12.60;99.90;;;;;;5098984;28;20047;-71
2023/04/30 08:22:57;;;;;;;14.55;4.13;;;12.70;99.90;;;;;;5098782;28;20078;-70
2023/04/30 08:25:23;;;;;;;14.02;3.17;;;12.70;99.90;;;;;;5099138;28;20125;-70
2023/04/30 08:27:49;;;;;;;13.63;3.85;;;12.50;99.90;;;;;;5098738;28;20110;-70
2023/04/30 08:30:15;;;;;;;11.25;2.83;;;12.70;99.90;;;;;;5098751;28;20036;-70
2023/04/30 08:32:40;;;;;;;11.35;2.75;;;12.60;99.90;;;;;;5099008;28;20043;-68
2023/04/30 08:35:07;;;;;;;11.55;2.83;;;12.80;99.90;;;;;;5098751;28;20456;-68
2023/04/30 08:37:33;;;;;;;8.60;2.75;;;13.10;99.90;;;;;;5098915;28;20044;-68
2023/04/30 08:39:59;;;;;;;17.50;3.10;;;13.40;99.90;;;;;;5097834;28;20091;-68
2023/04/30 08:42:33;;;;;;;13.20;2.90;;;13.40;99.90;;;;;;5098816;28;20105;-68
2023/04/30 08:45:00;;;;;;;8.57;2.72;;;13.20;99.90;;;;;;5094576;28;20352;-68
2023/04/30 08:47:27;;;;;;;12.05;2.55;;;13.00;99.90;;;;;;5084039;28;20116;-69
2023/04/30 08:49:52;;;;;;;12.23;2.85;;;13.00;99.90;;;;;;5080423;28;20302;-68
2023/04/30 08:52:19;;;;;;;17.15;3.28;;;13.40;99.90;;;;;;5090134;28;20094;-68
2023/04/30 08:54:46;;;;;;;12.05;2.88;;;13.30;99.90;;;;;;5083726;28;20525;-72
2023/04/30 08:57:12;;;;;;;11.73;3.10;;;13.10;99.90;;;;;;5093361;28;20083;-69
2023/04/30 08:59:38;;;;;;;14.90;2.95;;;13.20;99.90;;;;;;5095630;28;20406;-68
2023/04/30 09:02:04;;;;;;;10.27;2.70;;;13.20;99.90;;;;;;5096681;28;20048;-68
2023/04/30 09:04:30;;;;;;;11.07;3.13;;;13.30;99.90;;;;;;5079427;28;20048;-67
2023/04/30 09:06:58;;;;;;;10.27;3.40;;;13.50;99.90;;;;;;5097348;28;20044;-68
2023/04/30 09:09:28;;;;;;;7.05;2.67;;;13.40;99.90;;;;;;5063582;28;20043;-68
2023/04/30 09:12:12;;;;;;;8.07;2.22;;;13.20;99.90;;;;;;5096993;28;20036;-68
2023/04/30 09:14:39;;;;;;;11.60;2.50;;;13.50;99.90;;;;;;5097006;28;20136;-68
2023/04/30 09:17:05;;;;;;;11.02;3.22;;;13.50;99.90;;;;;;5097833;28;20044;-71
2023/04/30 09:19:31;;;;;;;8.45;2.78;;;13.50;99.90;;;;;;5098062;28;20051;-67
2023/04/30 09:21:57;;;;;;;14.32;3.28;;;13.60;99.90;;;;;;5097713;28;20036;-68
2023/04/30 09:24:23;;;;;;;17.17;3.13;;;13.80;99.90;;;;;;5097668;28;20040;-68
2023/04/30 09:26:50;;;;;;;15.40;2.97;;;14.00;99.90;;;;;;5097947;28;20157;-68
2023/04/30 09:29:16;;;;;;;11.65;2.65;;;13.80;99.90;;;;;;5097852;28;20076;-68
2023/04/30 09:31:46;;;;;;;10.40;2.33;;;13.60;99.90;;;;;;5096775;28;20413;-68
2023/04/30 09:34:12;;;;;;;12.05;2.60;;;13.80;99.90;;;;;;5097356;28;20452;-68
2023/04/30 09:36:53;;;;;;;14.43;2.85;;;14.00;99.90;;;;;;5097751;28;20036;-68
2023/04/30 09:39:20;;;;;;;10.30;2.30;;;14.20;99.90;;;;;;5097253;28;20079;-68
2023/04/30 09:41:45;;;;;;;6.28;2.55;;;14.30;99.90;;;;;;5091312;28;20045;-68
2023/04/30 09:44:31;;;;;;;9.38;2.53;;;14.10;99.90;;;;;;5085289;28;20047;-67
2023/04/30 09:46:57;;;;;;;16.20;2.97;;;14.30;99.90;;;;;;5096429;28;20052;-67
2023/04/30 09:49:24;;;;;;;13.38;2.47;;;14.40;99.90;;;;;;5085315;28;20079;-68
2023/04/30 09:51:55;;;;;;;9.57;2.30;;;14.50;99.90;;;;;;5092462;28;20032;-67
2023/04/30 09:54:27;;;;;;;13.35;3.05;;;14.60;99.90;;;;;;5094614;28;20371;-67
2023/04/30 09:56:57;;;;;;;10.88;2.55;;;14.90;99.90;;;;;;5096537;28;20042;-68
2023/04/30 09:59:29;;;;;;;5.82;2.17;;;15.10;99.90;;;;;;5078799;28;20047;-68
2023/04/30 10:02:00;;;;;;;11.10;2.60;;;15.10;99.90;;;;;;5076938;28;20326;-68
2023/04/30 10:04:30;;;;;;;8.45;2.40;;;15.40;99.90;;;;;;5075446;28;20044;-68
2023/04/30 10:07:00;;;;;;;10.32;2.58;;;15.60;99.90;;;;;;5076868;28;20040;-69
2023/04/30 10:09:39;;;;;;;10.52;2.65;;;15.50;99.90;;;;;;5076353;28;20052;-69
2023/04/30 10:12:15;;;;;;;13.15;2.40;;;15.50;99.90;;;;;;5076382;28;20326;-67
2023/04/30 10:14:51;;;;;;;11.93;3.58;;;15.60;99.90;;;;;;5076582;28;20098;-68
2023/04/30 10:17:17;;;;;;;11.48;3.03;;;15.60;99.90;;;;;;5076792;28;20119;-67
2023/04/30 10:19:47;;;;;;;12.10;2.92;;;15.60;99.90;;;;;;5081503;28;20048;-68
2023/04/30 10:22:13;;;;;;;12.95;2.75;;;15.70;99.90;;;;;;5058719;28;20044;-68
2023/04/30 10:24:41;;;;;;;10.93;2.50;;;15.90;99.90;;;;;;5076364;28;20422;-67
2023/04/30 10:27:07;;;;;;;7.20;2.28;;;15.80;99.90;;;;;;5092489;28;20047;-68
2023/04/30 10:29:33;;;;;;;5.95;2.22;;;15.90;99.90;;;;;;5080563;28;20318;-68
2023/04/30 10:32:00;;;;;;;10.55;2.65;;;16.10;99.90;;;;;;5104647;28;20044;-68
2023/04/30 10:34:34;;;;;;;9.98;2.67;;;15.90;99.90;;;;;;5084212;28;20044;-67
2023/04/30 10:37:06;;;;;;;7.65;2.45;;;15.70;99.90;;;;;;5076448;28;20048;-68
2023/04/30 10:39:33;;;;;;;6.72;2.30;;;15.90;99.90;;;;;;5081878;28;20152;-68
2023/04/30 10:42:02;;;;;;;8.68;2.83;;;16.10;99.90;;;;;;5086809;28;20048;-68
2023/04/30 10:44:40;;;;;;;5.00;1.83;;;15.80;99.90;;;;;;5087319;28;20132;-68
2023/04/30 10:47:06;;;;;;;8.32;2.42;;;15.80;99.90;;;;;;5077780;28;20072;-68
2023/04/30 10:49:32;;;;;;;8.63;2.88;;;16.20;99.90;;;;;;5079491;28;20043;-68
2023/04/30 10:52:04;;;;;;;6.95;2.50;;;16.80;99.90;;;;;;5087536;28;20032;-68
2023/04/30 10:54:33;;;;;;;10.85;2.63;;;17.20;99.90;;;;;;5086049;28;20325;-68
2023/04/30 10:57:12;;;;;;;9.55;2.58;;;17.30;99.90;;;;;;5080593;28;20317;-68
2023/04/30 10:59:43;;;;;;;9.95;2.72;;;17.40;99.90;;;;;;5080242;28;20028;-69
2023/04/30 11:02:10;;;;;;;8.98;2.47;;;17.60;99.90;;;;;;5095592;28;20032;-69
2023/04/30 11:05:08;;;;;;;11.48;2.95;;;17.70;99.90;;;;;;5097711;28;20052;-69
2023/04/30 11:07:34;;;;;;;8.30;3.13;;;17.40;99.90;;;;;;5097329;28;20163;-72
2023/04/30 11:10:01;;;;;;;7.85;2.40;;;17.40;99.90;;;;;;5099162;28;20089;-69
2023/04/30 11:12:28;;;;;;;12.27;2.50;;;17.50;99.90;;;;;;5099661;28;20048;-68
2023/04/30 11:15:15;;;;;;;11.15;2.42;;;17.70;99.90;;;;;;5099158;28;20040;-69
2023/04/30 11:17:43;;;;;;;8.77;1.98;;;17.80;99.90;;;;;;5100508;28;20032;-67
2023/04/30 11:20:12;;;;;;;7.63;2.20;;;18.00;99.90;;;;;;5100149;28;20119;-75
2023/04/30 11:22:38;;;;;;;6.40;2.25;;;18.10;99.90;;;;;;5099705;28;20115;-69
2023/04/30 11:25:11;;;;;;;5.40;2.22;;;18.00;99.90;;;;;;5099038;28;20146;-68
2023/04/30 11:27:43;;;;;;;7.88;2.55;;;17.90;99.90;;;;;;5100859;28;20148;-69
2023/04/30 11:30:14;;;;;;;6.97;2.22;;;17.70;99.90;;;;;;5100274;28;20040;-69
2023/04/30 11:32:43;;;;;;;11.07;2.40;;;17.70;99.90;;;;;;5099862;28;20040;-70
2023/04/30 11:35:09;;;;;;;7.50;2.05;;;18.20;99.90;;;;;;5099713;28;20052;-69
2023/04/30 11:37:41;;;;;;;8.68;2.78;;;18.70;99.90;;;;;;5100054;28;20181;-70
2023/04/30 11:40:11;;;;;;;10.13;2.65;;;18.90;99.90;;;;;;5100037;28;20119;-70
2023/04/30 11:42:39;;;;;;;6.72;2.40;;;19.10;99.90;;;;;;5098773;28;20032;-70
2023/04/30 11:45:09;;;;;;;9.15;2.55;;;19.00;99.90;;;;;;5099989;28;20047;-70
2023/04/30 11:47:58;;;;;;;5.15;2.10;;;19.10;99.90;;;;;;5099808;28;20043;-70
2023/04/30 11:50:28;;;;;;;2.22;1.70;;;19.30;99.90;;;;;;5089096;28;20048;-69
2023/04/30 11:53:00;;;;;;;6.63;1.80;;;19.10;99.90;;;;;;5099513;28;20318;-69
2023/04/30 11:55:27;;;;;;;6.07;2.25;;;19.30;99.90;;;;;;5099852;28;20047;-69
2023/04/30 11:57:57;;;;;;;17.33;3.70;;;19.40;99.90;;;;;;5081791;28;20090;-68
2023/04/30 12:00:30;;;;;;;7.38;2.13;;;19.60;99.90;;;;;;5098528;28;20433;-68
2023/04/30 12:02:58;;;;;;;5.40;1.85;;;19.20;99.90;;;;;;5099648;28;20043;-69
2023/04/30 12:05:26;;;;;;;6.53;2.70;;;19.30;99.90;;;;;;5099567;28;20122;-69
2023/04/30 12:08:00;;;;;;;6.97;2.67;;;19.20;99.90;;;;;;5098636;28;20047;-69
2023/04/30 12:10:26;;;;;;;4.95;2.33;;;18.70;99.90;;;;;;5099529;28;20036;-69
2023/04/30 12:12:53;;;;;;;5.28;2.22;;;18.50;99.90;;;;;;5098079;28;20066;-69
2023/04/30 12:15:31;;;;;;;8.15;2.50;;;19.00;99.90;;;;;;5098957;28;20040;-73
2023/04/30 12:17:58;;;;;;;6.97;2.10;;;18.70;99.90;;;;;;5099380;28;20083;-73
2023/04/30 12:20:30;;;;;;;8.13;3.45;;;18.60;99.90;;;;;;5098269;28;20489;-75
2023/04/30 12:22:57;;;;;;;6.50;2.50;;;18.30;99.90;;;;;;5098601;28;20048;-75
2023/04/30 12:25:23;;;;;;;8.60;2.50;;;18.60;99.90;;;;;;5098868;28;20417;-75
2023/04/30 12:27:52;;;;;;;8.07;2.55;;;19.00;99.90;;;;;;5099075;28;20044;-74
2023/04/30 12:30:24;;;;;;;7.68;3.20;;;19.00;99.90;;;;;;5098805;28;20165;-74
2023/04/30 12:32:52;;;;;;;7.75;3.13;;;18.60;99.90;;;;;;5098742;28;20044;-74
2023/04/30 12:35:21;;;;;;;7.72;2.83;;;18.30;99.90;;;;;;5098723;28;20048;-74
2023/04/30 12:37:52;;;;;;;7.35;2.50;;;18.60;99.90;;;;;;5098896;28;20048;-75
2023/04/30 12:40:19;;;;;;;7.38;3.25;;;18.20;99.90;;;;;;5098989;28;20039;-76
2023/04/30 12:42:48;;;;;;;6.63;2.70;;;18.30;99.90;;;;;;5098983;28;20036;-75
2023/04/30 12:45:49;;;;;;;5.80;2.70;;;18.20;99.90;;;;;;5098983;28;20093;-73
2023/04/30 12:48:15;;;;;;;8.05;3.22;;;18.40;99.90;;;;;;5098658;28;20047;-77
2023/04/30 12:50:42;;;;;;;9.48;2.92;;;18.70;99.90;;;;;;5097628;28;20044;-71